sensor_id;sensor_type;location;lat;lon;timestamp;pressure;altitude;pressure_sealevel;temperature;humidity
10480;BME280;12789;42.610;23.040;2022-08-21T00:02:20;93116.13;;;18.71;100.00
10480;BME280;12789;42.610;23.040;2022-08-21T00:04:49;93117.91;;;18.90;100.00
10480;BME280;12789;42.610;23.040;2022-08-21T00:07:17;93115.06;;;18.98;100.00
10480;BME280;12789;42.610;23.040;2022-08-21T00:09:44;93108.19;;;18.97;100.00
10480;BME280;12789;42.610;23.040;2022-08-21T00:12:13;93105.38;;;18.85;100.00
10480;BME280;12789;42.610;23.040;2022-08-21T00:14:40;93100.81;;;18.42;100.00
10480;BME280;12789;42.610;23.040;2022-08-21T00:17:07;93104.03;;;18.44;100.00
10480;BME280;12789;42.610;23.040;2022-08-21T00:19:34;93110.72;;;18.46;100.00
10480;BME280;12789;42.610;23.040;2022-08-21T00:22:01;93106.63;;;18.76;100.00
10480;BME280;12789;42.610;23.040;2022-08-21T00:24:28;93115.91;;;18.79;100.00
10480;BME280;12789;42.610;23.040;2022-08-21T00:26:55;93111.09;;;18.56;100.00
10480;BME280;12789;42.610;23.040;2022-08-21T00:29:24;93114.34;;;18.39;100.00
10480;BME280;12789;42.610;23.040;2022-08-21T00:31:50;93117.94;;;18.70;100.00
10480;BME280;12789;42.610;23.040;2022-08-21T00:34:17;93105.78;;;18.89;100.00
10480;BME280;12789;42.610;23.040;2022-08-21T00:36:44;93096.31;;;18.81;100.00
10480;BME280;12789;42.610;23.040;2022-08-21T00:39:11;93097.75;;;18.64;100.00
10480;BME280;12789;42.610;23.040;2022-08-21T00:41:39;93093.53;;;18.24;100.00
10480;BME280;12789;42.610;23.040;2022-08-21T00:44:07;93093.72;;;18.16;100.00
10480;BME280;12789;42.610;23.040;2022-08-21T00:46:37;93097.38;;;18.22;100.00
10480;BME280;12789;42.610;23.040;2022-08-21T00:49:05;93093.38;;;18.26;100.00
10480;BME280;12789;42.610;23.040;2022-08-21T00:51:37;93102.03;;;18.07;100.00
10480;BME280;12789;42.610;23.040;2022-08-21T00:54:06;93095.16;;;18.45;100.00
10480;BME280;12789;42.610;23.040;2022-08-21T00:56:34;93109.06;;;18.65;100.00
10480;BME280;12789;42.610;23.040;2022-08-21T00:59:02;93091.31;;;18.54;100.00
10480;BME280;12789;42.610;23.040;2022-08-21T01:01:29;93089.50;;;18.61;100.00
10480;BME280;12789;42.610;23.040;2022-08-21T01:03:58;93086.03;;;18.60;100.00
10480;BME280;12789;42.610;23.040;2022-08-21T01:06:24;93081.22;;;18.57;100.00
10480;BME280;12789;42.610;23.040;2022-08-21T01:08:51;93076.59;;;18.53;100.00
10480;BME280;12789;42.610;23.040;2022-08-21T01:11:18;93077.38;;;18.60;100.00
10480;BME280;12789;42.610;23.040;2022-08-21T01:13:47;93073.94;;;18.59;100.00
10480;BME280;12789;42.610;23.040;2022-08-21T01:16:17;93070.88;;;18.62;100.00
10480;BME280;12789;42.610;23.040;2022-08-21T01:18:45;93067.06;;;18.65;100.00
10480;BME280;12789;42.610;23.040;2022-08-21T01:21:16;93063.66;;;18.58;100.00
10480;BME280;12789;42.610;23.040;2022-08-21T01:23:45;93067.06;;;18.65;100.00
10480;BME280;12789;42.610;23.040;2022-08-21T01:26:15;93074.75;;;18.60;100.00
10480;BME280;12789;42.610;23.040;2022-08-21T01:28:49;93069.72;;;18.52;100.00
10480;BME280;12789;42.610;23.040;2022-08-21T01:31:22;93080.81;;;18.41;100.00
10480;BME280;12789;42.610;23.040;2022-08-21T01:33:50;93074.41;;;18.30;100.00
10480;BME280;12789;42.610;23.040;2022-08-21T01:36:18;93071.16;;;18.41;100.00
10480;BME280;12789;42.610;23.040;2022-08-21T01:38:45;93073.19;;;18.46;100.00
10480;BME280;12789;42.610;23.040;2022-08-21T01:41:13;93075.41;;;18.29;100.00
10480;BME280;12789;42.610;23.040;2022-08-21T01:43:40;93067.13;;;18.06;100.00
10480;BME280;12789;42.610;23.040;2022-08-21T01:46:07;93071.56;;;18.38;100.00
10480;BME280;12789;42.610;23.040;2022-08-21T01:48:35;93064.91;;;18.29;100.00
10480;BME280;12789;42.610;23.040;2022-08-21T01:51:02;93067.72;;;18.28;100.00
10480;BME280;12789;42.610;23.040;2022-08-21T01:53:31;93074.97;;;18.45;100.00
10480;BME280;12789;42.610;23.040;2022-08-21T01:55:59;93068.72;;;18.53;100.00
10480;BME280;12789;42.610;23.040;2022-08-21T01:58:26;93073.13;;;18.59;100.00
10480;BME280;12789;42.610;23.040;2022-08-21T02:00:53;93067.91;;;18.52;100.00
10480;BME280;12789;42.610;23.040;2022-08-21T02:03:20;93068.31;;;18.56;100.00
10480;BME280;12789;42.610;23.040;2022-08-21T02:05:47;93067.53;;;18.29;100.00
10480;BME280;12789;42.610;23.040;2022-08-21T02:08:14;93065.91;;;18.41;100.00
10480;BME280;12789;42.610;23.040;2022-08-21T02:10:43;93072.72;;;18.62;100.00
10480;BME280;12789;42.610;23.040;2022-08-21T02:13:12;93073.13;;;18.59;100.00
10480;BME280;12789;42.610;23.040;2022-08-21T02:15:38;93071.34;;;18.53;100.00
10480;BME280;12789;42.610;23.040;2022-08-21T02:18:06;93075.13;;;18.70;100.00
10480;BME280;12789;42.610;23.040;2022-08-21T02:20:36;93069.09;;;18.63;100.00
10480;BME280;12789;42.610;23.040;2022-08-21T02:23:04;93071.13;;;18.61;100.00
10480;BME280;12789;42.610;23.040;2022-08-21T02:25:31;93077.56;;;18.65;100.00
10480;BME280;12789;42.610;23.040;2022-08-21T02:28:03;93068.72;;;18.46;100.00
10480;BME280;12789;42.610;23.040;2022-08-21T02:30:34;93069.50;;;18.60;100.00
10480;BME280;12789;42.610;23.040;2022-08-21T02:33:03;93059.38;;;18.70;100.00
10480;BME280;12789;42.610;23.040;2022-08-21T02:35:31;93060.56;;;18.80;100.00
10480;BME280;12789;42.610;23.040;2022-08-21T02:37:59;93072.34;;;18.52;100.00
10480;BME280;12789;42.610;23.040;2022-08-21T02:40:29;93073.97;;;18.46;100.00
10480;BME280;12789;42.610;23.040;2022-08-21T02:42:57;93075.19;;;18.31;100.00
10480;BME280;12789;42.610;23.040;2022-08-21T02:45:26;93081.66;;;18.35;100.00
10480;BME280;12789;42.610;23.040;2022-08-21T02:47:56;93089.72;;;18.53;100.00
10480;BME280;12789;42.610;23.040;2022-08-21T02:50:26;93071.72;;;18.63;100.00
10480;BME280;12789;42.610;23.040;2022-08-21T02:52:53;93069.91;;;18.50;100.00
10480;BME280;12789;42.610;23.040;2022-08-21T02:55:22;93076.78;;;18.45;100.00
10480;BME280;12789;42.610;23.040;2022-08-21T02:57:52;93081.66;;;18.48;100.00
10480;BME280;12789;42.610;23.040;2022-08-21T03:00:20;93085.28;;;18.47;100.00
10480;BME280;12789;42.610;23.040;2022-08-21T03:02:49;93077.63;;;18.26;100.00
10480;BME280;12789;42.610;23.040;2022-08-21T03:05:16;93087.09;;;18.27;100.00
10480;BME280;12789;42.610;23.040;2022-08-21T03:07:44;93087.69;;;18.16;100.00
10480;BME280;12789;42.610;23.040;2022-08-21T03:10:12;93081.66;;;18.09;100.00
10480;BME280;12789;42.610;23.040;2022-08-21T03:12:39;93075.97;;;18.18;100.00
10480;BME280;12789;42.610;23.040;2022-08-21T03:15:09;93070.34;;;18.28;100.00
10480;BME280;12789;42.610;23.040;2022-08-21T03:17:36;93066.31;;;18.19;100.00
10480;BME280;12789;42.610;23.040;2022-08-21T03:20:05;93078.00;;;18.03;100.00
10480;BME280;12789;42.610;23.040;2022-08-21T03:22:33;93070.75;;;18.05;100.00
10480;BME280;12789;42.610;23.040;2022-08-21T03:25:01;93067.09;;;18.19;100.00
10480;BME280;12789;42.610;23.040;2022-08-21T03:27:31;93054.19;;;18.18;100.00
10480;BME280;12789;42.610;23.040;2022-08-21T03:29:59;93076.19;;;18.17;100.00
10480;BME280;12789;42.610;23.040;2022-08-21T03:32:27;93060.22;;;18.18;100.00
10480;BME280;12789;42.610;23.040;2022-08-21T03:34:54;93075.38;;;18.03;100.00
10480;BME280;12789;42.610;23.040;2022-08-21T03:37:22;93080.22;;;17.87;100.00
10480;BME280;12789;42.610;23.040;2022-08-21T03:39:50;93077.22;;;17.97;100.00
10480;BME280;12789;42.610;23.040;2022-08-21T03:42:17;93082.66;;;18.08;100.00
10480;BME280;12789;42.610;23.040;2022-08-21T03:44:44;93080.81;;;18.02;100.00
10480;BME280;12789;42.610;23.040;2022-08-21T03:47:11;93081.03;;;18.01;100.00
10480;BME280;12789;42.610;23.040;2022-08-21T03:49:39;93083.84;;;18.05;100.00
10480;BME280;12789;42.610;23.040;2022-08-21T03:52:06;93073.38;;;18.12;100.00
10480;BME280;12789;42.610;23.040;2022-08-21T03:54:35;93067.53;;;18.10;100.00
10480;BME280;12789;42.610;23.040;2022-08-21T03:57:02;93073.19;;;18.07;100.00
10480;BME280;12789;42.610;23.040;2022-08-21T03:59:29;93079.63;;;17.85;100.00
10480;BME280;12789;42.610;23.040;2022-08-21T04:01:58;93083.25;;;18.10;100.00
10480;BME280;12789;42.610;23.040;2022-08-21T04:04:27;93072.97;;;17.96;100.00
10480;BME280;12789;42.610;23.040;2022-08-21T04:06:54;93087.28;;;18.00;100.00
10480;BME280;12789;42.610;23.040;2022-08-21T04:09:22;93080.41;;;18.05;100.00
10480;BME280;12789;42.610;23.040;2022-08-21T04:11:51;93085.69;;;17.99;100.00
10480;BME280;12789;42.610;23.040;2022-08-21T04:14:18;93096.13;;;17.86;100.00
10480;BME280;12789;42.610;23.040;2022-08-21T04:16:45;93092.53;;;17.80;100.00
10480;BME280;12789;42.610;23.040;2022-08-21T04:19:13;93101.03;;;18.08;100.00
10480;BME280;12789;42.610;23.040;2022-08-21T04:21:40;93099.03;;;18.29;100.00
10480;BME280;12789;42.610;23.040;2022-08-21T04:24:09;93095.78;;;18.34;100.00
10480;BME280;12789;42.610;23.040;2022-08-21T04:26:37;93095.78;;;18.47;100.00
10480;BME280;12789;42.610;23.040;2022-08-21T04:29:06;93096.78;;;18.33;100.00
10480;BME280;12789;42.610;23.040;2022-08-21T04:31:33;93092.53;;;18.25;100.00
10480;BME280;12789;42.610;23.040;2022-08-21T04:34:03;93092.53;;;18.25;100.00
10480;BME280;12789;42.610;23.040;2022-08-21T04:36:31;93104.69;;;18.26;100.00
10480;BME280;12789;42.610;23.040;2022-08-21T04:38:59;93113.72;;;18.11;100.00
10480;BME280;12789;42.610;23.040;2022-08-21T04:41:26;93120.16;;;18.21;100.00
10480;BME280;12789;42.610;23.040;2022-08-21T04:43:52;93116.16;;;18.19;100.00
10480;BME280;12789;42.610;23.040;2022-08-21T04:46:22;93120.75;;;17.91;100.00
10480;BME280;12789;42.610;23.040;2022-08-21T04:48:49;93118.75;;;17.80;100.00
10480;BME280;12789;42.610;23.040;2022-08-21T04:51:19;93107.41;;;17.60;100.00
10480;BME280;12789;42.610;23.040;2022-08-21T04:53:53;93099.94;;;17.57;100.00
10480;BME280;12789;42.610;23.040;2022-08-21T04:56:25;93116.72;;;17.82;100.00
10480;BME280;12789;42.610;23.040;2022-08-21T04:58:57;93121.91;;;17.56;100.00
10480;BME280;12789;42.610;23.040;2022-08-21T05:01:29;93110.88;;;17.67;100.00
10480;BME280;12789;42.610;23.040;2022-08-21T05:03:59;93112.09;;;18.23;100.00
10480;BME280;12789;42.610;23.040;2022-08-21T05:06:28;93116.75;;;18.14;100.00
10480;BME280;12789;42.610;23.040;2022-08-21T05:08:57;93125.22;;;18.10;100.00
10480;BME280;12789;42.610;23.040;2022-08-21T05:11:25;93123.00;;;18.13;100.00
10480;BME280;12789;42.610;23.040;2022-08-21T05:13:51;93134.69;;;17.85;100.00
10480;BME280;12789;42.610;23.040;2022-08-21T05:16:18;93125.22;;;18.23;100.00
10480;BME280;12789;42.610;23.040;2022-08-21T05:18:47;93124.00;;;18.00;100.00
10480;BME280;12789;42.610;23.040;2022-08-21T05:21:14;93128.41;;;17.86;100.00
10480;BME280;12789;42.610;23.040;2022-08-21T05:23:41;93113.13;;;18.35;100.00
10480;BME280;12789;42.610;23.040;2022-08-21T05:26:08;93111.47;;;17.95;100.00
10480;BME280;12789;42.610;23.040;2022-08-21T05:28:35;93113.91;;;18.09;100.00
10480;BME280;12789;42.610;23.040;2022-08-21T05:31:02;93115.56;;;18.30;100.00
10480;BME280;12789;42.610;23.040;2022-08-21T05:33:30;93115.94;;;18.40;100.00
10480;BME280;12789;42.610;23.040;2022-08-21T05:35:58;93118.78;;;18.58;100.00
10480;BME280;12789;42.610;23.040;2022-08-21T05:38:26;93113.53;;;18.45;100.00
10480;BME280;12789;42.610;23.040;2022-08-21T05:40:54;93108.69;;;18.55;100.00
10480;BME280;12789;42.610;23.040;2022-08-21T05:43:21;93103.25;;;18.43;100.00
10480;BME280;12789;42.610;23.040;2022-08-21T05:45:48;93107.06;;;18.41;100.00
10480;BME280;12789;42.610;23.040;2022-08-21T05:48:18;93116.94;;;19.78;100.00
10480;BME280;12789;42.610;23.040;2022-08-21T05:50:47;93108.97;;;19.10;100.00
10480;BME280;12789;42.610;23.040;2022-08-21T05:53:17;93108.97;;;18.97;100.00
10480;BME280;12789;42.610;23.040;2022-08-21T05:55:45;93105.06;;;18.30;100.00
10480;BME280;12789;42.610;23.040;2022-08-21T05:58:14;93108.19;;;18.84;100.00
10480;BME280;12789;42.610;23.040;2022-08-21T06:00:41;93109.00;;;17.48;100.00
10480;BME280;12789;42.610;23.040;2022-08-21T06:03:13;93112.25;;;17.57;100.00
10480;BME280;12789;42.610;23.040;2022-08-21T06:05:42;93104.66;;;18.46;100.00
10480;BME280;12789;42.610;23.040;2022-08-21T06:08:09;93104.97;;;18.95;100.00
10480;BME280;12789;42.610;23.040;2022-08-21T06:10:38;93107.41;;;18.90;100.00
10480;BME280;12789;42.610;23.040;2022-08-21T06:13:05;93103.63;;;18.66;100.00
10480;BME280;12789;42.610;23.040;2022-08-21T06:15:32;93107.59;;;18.95;100.00
10480;BME280;12789;42.610;23.040;2022-08-21T06:17:59;93115.41;;;19.21;100.00
10480;BME280;12789;42.610;23.040;2022-08-21T06:20:27;93106.41;;;19.41;100.00
10480;BME280;12789;42.610;23.040;2022-08-21T06:22:54;93104.25;;;18.36;100.00
10480;BME280;12789;42.610;23.040;2022-08-21T06:25:21;93106.16;;;19.05;100.00
10480;BME280;12789;42.610;23.040;2022-08-21T06:27:51;93104.59;;;19.48;100.00
10480;BME280;12789;42.610;23.040;2022-08-21T06:30:18;93111.72;;;18.39;100.00
10480;BME280;12789;42.610;23.040;2022-08-21T06:32:45;93094.78;;;18.48;100.00
10480;BME280;12789;42.610;23.040;2022-08-21T06:35:12;93089.97;;;19.02;100.00
10480;BME280;12789;42.610;23.040;2022-08-21T06:37:40;93099.75;;;19.39;100.00
10480;BME280;12789;42.610;23.040;2022-08-21T06:40:08;93101.28;;;19.59;100.00
10480;BME280;12789;42.610;23.040;2022-08-21T06:42:35;93100.56;;;19.76;100.00
10480;BME280;12789;42.610;23.040;2022-08-21T06:45:05;93114.88;;;19.50;100.00
10480;BME280;12789;42.610;23.040;2022-08-21T06:47:32;93109.19;;;19.53;100.00
10480;BME280;12789;42.610;23.040;2022-08-21T06:49:59;93096.84;;;19.09;100.00
10480;BME280;12789;42.610;23.040;2022-08-21T06:52:26;93111.38;;;19.25;100.00
10480;BME280;12789;42.610;23.040;2022-08-21T06:54:53;93104.38;;;19.43;100.00
10480;BME280;12789;42.610;23.040;2022-08-21T06:57:20;93111.78;;;19.59;100.00
10480;BME280;12789;42.610;23.040;2022-08-21T06:59:47;93104.94;;;19.52;100.00
10480;BME280;12789;42.610;23.040;2022-08-21T07:02:16;93124.31;;;19.63;100.00
10480;BME280;12789;42.610;23.040;2022-08-21T07:04:44;93119.59;;;19.72;100.00
10480;BME280;12789;42.610;23.040;2022-08-21T07:07:10;93120.91;;;19.57;100.00
10480;BME280;12789;42.610;23.040;2022-08-21T07:09:38;93125.28;;;19.69;100.00
10480;BME280;12789;42.610;23.040;2022-08-21T07:12:05;93116.03;;;19.60;100.00
10480;BME280;12789;42.610;23.040;2022-08-21T07:14:32;93118.06;;;20.26;100.00
10480;BME280;12789;42.610;23.040;2022-08-21T07:16:59;93123.31;;;21.17;100.00
10480;BME280;12789;42.610;23.040;2022-08-21T07:19:29;93118.16;;;20.13;100.00
10480;BME280;12789;42.610;23.040;2022-08-21T07:21:58;93116.59;;;19.99;100.00
10480;BME280;12789;42.610;23.040;2022-08-21T07:24:27;93112.75;;;20.08;100.00
10480;BME280;12789;42.610;23.040;2022-08-21T07:26:54;93112.97;;;20.00;100.00
10480;BME280;12789;42.610;23.040;2022-08-21T07:29:21;93104.63;;;20.34;100.00
10480;BME280;12789;42.610;23.040;2022-08-21T07:31:48;93102.16;;;20.82;100.00
10480;BME280;12789;42.610;23.040;2022-08-21T07:34:15;93104.03;;;20.99;100.00
10480;BME280;12789;42.610;23.040;2022-08-21T07:36:43;93101.41;;;21.17;100.00
10480;BME280;12789;42.610;23.040;2022-08-21T07:39:11;93096.91;;;21.35;100.00
10480;BME280;12789;42.610;23.040;2022-08-21T07:41:39;93100.81;;;21.33;100.00
10480;BME280;12789;42.610;23.040;2022-08-21T07:44:06;93103.22;;;22.00;100.00
10480;BME280;12789;42.610;23.040;2022-08-21T07:46:33;93106.72;;;22.35;100.00
10480;BME280;12789;42.610;23.040;2022-08-21T07:49:01;93106.09;;;22.51;100.00
10480;BME280;12789;42.610;23.040;2022-08-21T07:51:28;93110.13;;;22.76;100.00
10480;BME280;12789;42.610;23.040;2022-08-21T07:53:58;93107.16;;;22.32;100.00
10480;BME280;12789;42.610;23.040;2022-08-21T07:56:25;93102.31;;;23.15;100.00
10480;BME280;12789;42.610;23.040;2022-08-21T07:58:53;93102.66;;;22.62;100.00
10480;BME280;12789;42.610;23.040;2022-08-21T08:01:22;93103.06;;;21.95;100.00
10480;BME280;12789;42.610;23.040;2022-08-21T08:03:50;93098.38;;;22.49;100.00
10480;BME280;12789;42.610;23.040;2022-08-21T08:06:17;93101.53;;;22.80;100.00
10480;BME280;12789;42.610;23.040;2022-08-21T08:08:45;93106.91;;;22.74;100.00
10480;BME280;12789;42.610;23.040;2022-08-21T08:11:14;93100.06;;;23.58;100.00
10480;BME280;12789;42.610;23.040;2022-08-21T08:13:44;93102.22;;;22.87;100.00
10480;BME280;12789;42.610;23.040;2022-08-21T08:16:14;93089.88;;;22.93;100.00
10480;BME280;12789;42.610;23.040;2022-08-21T08:18:41;93087.94;;;23.62;100.00
10480;BME280;12789;42.610;23.040;2022-08-21T08:21:12;93088.78;;;22.14;100.00
10480;BME280;12789;42.610;23.040;2022-08-21T08:23:39;93092.44;;;22.65;100.00
10480;BME280;12789;42.610;23.040;2022-08-21T08:26:07;93101.38;;;22.53;100.00
10480;BME280;12789;42.610;23.040;2022-08-21T08:28:35;93084.38;;;21.96;100.00
10480;BME280;12789;42.610;23.040;2022-08-21T08:31:02;93076.31;;;24.19;100.00
10480;BME280;12789;42.610;23.040;2022-08-21T08:33:30;93079.66;;;25.13;100.00
10480;BME280;12789;42.610;23.040;2022-08-21T08:35:58;93079.91;;;25.12;100.00
10480;BME280;12789;42.610;23.040;2022-08-21T08:38:25;93072.81;;;25.34;100.00
10480;BME280;12789;42.610;23.040;2022-08-21T08:41:02;93073.66;;;26.03;100.00
10480;BME280;12789;42.610;23.040;2022-08-21T08:43:35;93074.84;;;23.95;100.00
10480;BME280;12789;42.610;23.040;2022-08-21T08:46:05;93065.91;;;24.78;100.00
10480;BME280;12789;42.610;23.040;2022-08-21T08:48:43;93068.81;;;24.77;100.00
10480;BME280;12789;42.610;23.040;2022-08-21T08:51:17;93065.00;;;26.44;100.00
10480;BME280;12789;42.610;23.040;2022-08-21T08:53:50;93063.66;;;25.89;100.00
10480;BME280;12789;42.610;23.040;2022-08-21T08:56:25;93058.84;;;25.86;100.00
10480;BME280;12789;42.610;23.040;2022-08-21T08:58:57;93060.41;;;25.18;100.00
10480;BME280;12789;42.610;23.040;2022-08-21T09:01:26;93051.34;;;26.04;100.00
10480;BME280;12789;42.610;23.040;2022-08-21T09:03:53;93057.53;;;25.89;100.00
10480;BME280;12789;42.610;23.040;2022-08-21T09:06:31;93060.84;;;25.74;100.00
10480;BME280;12789;42.610;23.040;2022-08-21T09:09:09;93058.38;;;26.78;100.00
10480;BME280;12789;42.610;23.040;2022-08-21T09:11:44;93050.41;;;26.78;100.00
10480;BME280;12789;42.610;23.040;2022-08-21T09:14:24;93048.03;;;26.82;100.00
10480;BME280;12789;42.610;23.040;2022-08-21T09:16:56;93040.19;;;26.34;100.00
10480;BME280;12789;42.610;23.040;2022-08-21T09:19:39;93040.03;;;26.14;100.00
10480;BME280;12789;42.610;23.040;2022-08-21T09:22:17;93039.94;;;26.09;100.00
10480;BME280;12789;42.610;23.040;2022-08-21T09:24:53;93033.50;;;26.00;100.00
10480;BME280;12789;42.610;23.040;2022-08-21T09:27:23;93033.63;;;25.89;100.00
10480;BME280;12789;42.610;23.040;2022-08-21T09:29:53;93023.94;;;27.50;100.00
10480;BME280;12789;42.610;23.040;2022-08-21T09:32:24;93020.22;;;26.58;100.00
10480;BME280;12789;42.610;23.040;2022-08-21T09:34:57;93018.53;;;28.06;100.00
10480;BME280;12789;42.610;23.040;2022-08-21T09:37:26;93022.31;;;28.95;100.00
10480;BME280;12789;42.610;23.040;2022-08-21T09:39:54;93014.00;;;27.30;100.00
10480;BME280;12789;42.610;23.040;2022-08-21T09:42:25;93006.50;;;27.12;100.00
10480;BME280;12789;42.610;23.040;2022-08-21T09:45:10;93014.78;;;26.16;100.00
10480;BME280;12789;42.610;23.040;2022-08-21T09:47:38;93010.53;;;28.06;100.00
10480;BME280;12789;42.610;23.040;2022-08-21T09:50:12;93014.03;;;27.35;100.00
10480;BME280;12789;42.610;23.040;2022-08-21T09:52:45;93008.34;;;26.07;100.00
10480;BME280;12789;42.610;23.040;2022-08-21T09:55:19;93003.94;;;26.49;100.00
10480;BME280;12789;42.610;23.040;2022-08-21T09:58:04;93001.44;;;27.87;100.00
10480;BME280;12789;42.610;23.040;2022-08-21T10:00:34;93001.47;;;28.02;100.00
10480;BME280;12789;42.610;23.040;2022-08-21T10:03:14;92995.94;;;26.49;100.00
10480;BME280;12789;42.610;23.040;2022-08-21T10:05:51;92996.13;;;27.97;100.00
10480;BME280;12789;42.610;23.040;2022-08-21T10:08:21;92987.56;;;27.09;100.00
10480;BME280;12789;42.610;23.040;2022-08-21T10:10:53;92988.94;;;27.92;100.00
10480;BME280;12789;42.610;23.040;2022-08-21T10:13:27;92981.50;;;28.94;93.15
10480;BME280;12789;42.610;23.040;2022-08-21T10:16:08;92982.28;;;28.95;88.78
10480;BME280;12789;42.610;23.040;2022-08-21T10:18:41;92986.03;;;28.59;86.04
10480;BME280;12789;42.610;23.040;2022-08-21T10:21:16;92982.16;;;27.50;90.39
10480;BME280;12789;42.610;23.040;2022-08-21T10:23:51;92965.91;;;27.56;89.79
10480;BME280;12789;42.610;23.040;2022-08-21T10:26:32;92969.09;;;26.92;87.97
10480;BME280;12789;42.610;23.040;2022-08-21T10:29:09;92962.25;;;28.82;85.74
10480;BME280;12789;42.610;23.040;2022-08-21T10:31:46;92959.22;;;29.28;82.74
10480;BME280;12789;42.610;23.040;2022-08-21T10:34:24;92949.91;;;29.79;83.82
10480;BME280;12789;42.610;23.040;2022-08-21T10:37:07;92955.94;;;29.41;83.50
10480;BME280;12789;42.610;23.040;2022-08-21T10:39:45;92950.53;;;27.73;86.57
10480;BME280;12789;42.610;23.040;2022-08-21T10:42:23;92940.44;;;29.43;82.61
10480;BME280;12789;42.610;23.040;2022-08-21T10:45:01;92933.81;;;31.36;80.03
10480;BME280;12789;42.610;23.040;2022-08-21T10:47:35;92930.47;;;30.12;74.71
10480;BME280;12789;42.610;23.040;2022-08-21T10:50:10;92923.91;;;29.51;74.90
10480;BME280;12789;42.610;23.040;2022-08-21T10:52:51;92923.78;;;29.08;75.74
10480;BME280;12789;42.610;23.040;2022-08-21T10:55:22;92930.47;;;30.41;73.95
10480;BME280;12789;42.610;23.040;2022-08-21T10:57:52;92916.69;;;30.62;69.68
10480;BME280;12789;42.610;23.040;2022-08-21T11:00:28;92912.91;;;29.96;68.76
10480;BME280;12789;42.610;23.040;2022-08-21T11:03:04;92904.63;;;30.31;66.15
10480;BME280;12789;42.610;23.040;2022-08-21T11:05:38;92908.03;;;29.12;69.73
10480;BME280;12789;42.610;23.040;2022-08-21T11:08:10;92905.81;;;29.28;70.13
10480;BME280;12789;42.610;23.040;2022-08-21T11:10:42;92891.88;;;30.80;70.50
10480;BME280;12789;42.610;23.040;2022-08-21T11:13:17;92882.84;;;32.92;64.32
10480;BME280;12789;42.610;23.040;2022-08-21T11:15:52;92880.13;;;30.76;65.71
10480;BME280;12789;42.610;23.040;2022-08-21T11:18:28;92885.16;;;29.49;65.86
10480;BME280;12789;42.610;23.040;2022-08-21T11:21:04;92877.38;;;29.91;64.83
10480;BME280;12789;42.610;23.040;2022-08-21T11:23:38;92873.53;;;30.40;64.20
10480;BME280;12789;42.610;23.040;2022-08-21T11:26:10;92874.16;;;32.23;63.43
10480;BME280;12789;42.610;23.040;2022-08-21T11:28:50;92861.88;;;32.36;62.71
10480;BME280;12789;42.610;23.040;2022-08-21T11:31:33;92860.81;;;32.50;60.53
10480;BME280;12789;42.610;23.040;2022-08-21T11:34:15;92863.28;;;32.92;60.92
10480;BME280;12789;42.610;23.040;2022-08-21T14:36:21;92897.56;;;24.38;78.46
10480;BME280;12789;42.610;23.040;2022-08-21T14:39:10;92892.91;;;24.66;78.88
10480;BME280;12789;42.610;23.040;2022-08-21T14:41:38;92892.66;;;24.14;78.04
10480;BME280;12789;42.610;23.040;2022-08-21T14:44:06;92890.91;;;23.53;79.08
10480;BME280;12789;42.610;23.040;2022-08-21T14:46:34;92892.94;;;24.12;77.41
10480;BME280;12789;42.610;23.040;2022-08-21T14:49:01;92885.41;;;25.54;75.17
10480;BME280;12789;42.610;23.040;2022-08-21T14:51:31;92879.91;;;25.34;75.50
10480;BME280;12789;42.610;23.040;2022-08-21T14:54:11;92878.16;;;25.18;74.15
10480;BME280;12789;42.610;23.040;2022-08-21T14:56:47;92872.16;;;25.28;74.04
10480;BME280;12789;42.610;23.040;2022-08-21T14:59:36;92849.53;;;27.47;68.39
10480;BME280;12789;42.610;23.040;2022-08-21T15:02:08;92834.44;;;26.71;68.64
10480;BME280;12789;42.610;23.040;2022-08-21T15:04:35;92824.34;;;26.78;69.65
10480;BME280;12789;42.610;23.040;2022-08-21T15:07:07;92817.94;;;26.74;68.83
10480;BME280;12789;42.610;23.040;2022-08-21T15:09:41;92815.84;;;28.61;66.45
10480;BME280;12789;42.610;23.040;2022-08-21T15:12:16;92798.44;;;29.75;64.21
10480;BME280;12789;42.610;23.040;2022-08-21T15:15:04;92802.56;;;28.51;65.67
10480;BME280;12789;42.610;23.040;2022-08-21T15:17:33;92798.94;;;27.62;67.61
10480;BME280;12789;42.610;23.040;2022-08-21T15:20:16;92783.31;;;28.59;64.39
10480;BME280;12789;42.610;23.040;2022-08-21T15:23:01;92789.59;;;28.04;66.38
10480;BME280;12789;42.610;23.040;2022-08-21T15:25:55;92785.25;;;28.53;65.39
10480;BME280;12789;42.610;23.040;2022-08-21T15:28:24;92789.06;;;28.96;65.62
10480;BME280;12789;42.610;23.040;2022-08-21T15:30:52;92799.25;;;27.70;67.59
10480;BME280;12789;42.610;23.040;2022-08-21T15:33:19;92782.41;;;28.93;65.38
10480;BME280;12789;42.610;23.040;2022-08-21T15:35:47;92791.31;;;28.64;65.55
10480;BME280;12789;42.610;23.040;2022-08-21T15:38:15;92778.75;;;28.69;64.70
10480;BME280;12789;42.610;23.040;2022-08-21T15:40:43;92790.88;;;27.07;70.34
10480;BME280;12789;42.610;23.040;2022-08-21T15:43:19;92791.69;;;28.32;66.25
10480;BME280;12789;42.610;23.040;2022-08-21T15:45:48;92777.34;;;28.87;65.89
10480;BME280;12789;42.610;23.040;2022-08-21T15:48:15;92773.91;;;27.93;67.55
10480;BME280;12789;42.610;23.040;2022-08-21T15:50:42;92793.88;;;27.51;69.86
10480;BME280;12789;42.610;23.040;2022-08-21T15:53:09;92788.81;;;27.14;70.70
10480;BME280;12789;42.610;23.040;2022-08-21T15:55:39;92796.19;;;26.31;73.86
10480;BME280;12789;42.610;23.040;2022-08-21T15:58:06;92814.34;;;25.66;77.06